createdAt,value
2019-03-01T00:01:54.023Z,74.34
2019-03-01T00:05:21.184Z,74.12
2019-03-01T00:08:16.072Z,74.09
2019-03-01T00:11:43.855Z,73.71
2019-03-01T00:15:03.065Z,72.71
2019-03-01T00:18:38.785Z,73.05
2019-03-01T00:22:16.963Z,73.87
2019-03-01T00:25:45.960Z,75.34
2019-03-01T00:29:16.609Z,75.96
2019-03-01T00:32:30.998Z,76.41
2019-03-01T00:36:12.650Z,76.58
2019-03-01T00:39:25.951Z,76.57
2019-03-01T00:42:54.883Z,76.73
2019-03-01T00:45:27.701Z,76.68
2019-03-01T00:48:00.649Z,76.50
2019-03-01T00:50:33.839Z,76.77
2019-03-01T00:53:07.338Z,76.60
2019-03-01T00:55:45.909Z,76.42
2019-03-01T00:58:18.909Z,76.11
2019-03-01T01:00:53.103Z,75.84
2019-03-01T01:03:26.059Z,75.55
2019-03-01T01:05:58.889Z,75.43
2019-03-01T01:08:31.857Z,75.34
2019-03-01T01:13:55.551Z,75.66
2019-03-01T01:16:28.421Z,76.15
2019-03-01T01:19:01.297Z,76.39
2019-03-01T01:21:34.506Z,76.54
2019-03-01T01:24:09.110Z,76.60
2019-03-01T01:26:42.486Z,76.55
2019-03-01T01:29:15.406Z,76.95
2019-03-01T01:31:48.410Z,77.26
2019-03-01T01:34:21.391Z,77.41
2019-03-01T01:36:54.426Z,77.57
2019-03-01T01:39:28.880Z,77.74
2019-03-01T01:42:01.983Z,77.77
2019-03-01T01:44:34.872Z,77.82
2019-03-01T01:47:07.690Z,77.69
2019-03-01T01:49:40.641Z,77.44
2019-03-01T01:52:14.734Z,77.27
2019-03-01T01:54:47.830Z,76.97
2019-03-01T01:57:20.834Z,76.59
2019-03-01T01:59:53.761Z,76.26
2019-03-01T02:02:26.749Z,75.83
2019-03-01T02:04:59.705Z,75.52
2019-03-01T02:07:34.259Z,75.18
2019-03-01T02:10:08.737Z,75.01
2019-03-01T02:12:41.753Z,75.03
2019-03-01T02:15:15.114Z,75.08
2019-03-01T02:17:49.142Z,74.98
2019-03-01T02:20:22.067Z,74.89
2019-03-01T02:22:54.880Z,75.06
2019-03-01T02:25:27.881Z,75.11
2019-03-01T02:28:00.743Z,75.03
2019-03-01T02:30:34.608Z,75.01
2019-03-01T02:33:07.669Z,75.29
2019-03-01T02:35:40.679Z,75.34
2019-03-01T02:38:13.631Z,75.44
2019-03-01T02:40:46.534Z,75.71
2019-03-01T02:43:19.387Z,75.83
2019-03-01T02:45:52.506Z,75.67
2019-03-01T02:48:25.600Z,75.68
2019-03-01T02:50:58.487Z,75.38
2019-03-01T02:53:31.295Z,75.41
2019-03-01T02:56:04.270Z,75.46
2019-03-01T02:58:37.270Z,75.33
2019-03-01T03:01:10.184Z,75.64
2019-03-01T03:03:43.078Z,75.69
2019-03-01T03:06:37.719Z,75.76
2019-03-01T03:09:11.770Z,75.82
2019-03-01T03:11:44.874Z,75.75
2019-03-01T03:14:17.894Z,75.92
2019-03-01T03:16:50.877Z,75.83
2019-03-01T03:19:23.749Z,75.55
2019-03-01T03:21:56.608Z,75.59
2019-03-01T03:24:29.603Z,75.47
2019-03-01T03:27:02.565Z,75.31
2019-03-01T03:29:36.714Z,75.55
2019-03-01T03:32:11.098Z,75.56
2019-03-01T03:34:44.138Z,75.56
2019-03-01T03:37:16.935Z,75.64
2019-03-01T03:39:49.809Z,75.93
2019-03-01T03:42:22.860Z,76.00
2019-03-01T03:44:55.856Z,76.09
2019-03-01T03:47:28.943Z,76.42
2019-03-01T03:50:02.076Z,76.69
2019-03-01T03:52:39.367Z,77.11
2019-03-01T03:55:14.503Z,77.31
2019-03-01T03:57:48.159Z,77.55
2019-03-01T04:00:21.501Z,77.68
2019-03-01T04:02:54.610Z,77.77
2019-03-01T04:05:27.580Z,77.90
2019-03-01T04:08:00.520Z,78.02
2019-03-01T04:10:33.396Z,78.09
2019-03-01T04:13:06.433Z,78.07
2019-03-01T04:15:39.509Z,78.22
2019-03-01T04:18:12.424Z,78.19
2019-03-01T04:20:45.460Z,78.36
2019-03-01T04:23:18.533Z,78.38
2019-03-01T04:25:51.366Z,78.42
2019-03-01T04:28:24.292Z,78.53
2019-03-01T04:30:57.617Z,78.42
2019-03-01T04:33:30.780Z,78.30
2019-03-01T04:36:03.822Z,78.30
2019-03-01T04:38:37.012Z,78.21
2019-03-01T04:41:09.948Z,78.05
2019-03-01T04:43:43.955Z,77.88
2019-03-01T04:46:16.791Z,77.63
2019-03-01T04:48:49.748Z,77.57
2019-03-01T04:51:22.639Z,77.26
2019-03-01T04:53:55.511Z,77.05
2019-03-01T04:56:28.891Z,76.79
2019-03-01T04:59:01.793Z,76.94
2019-03-01T05:01:36.983Z,76.84
2019-03-01T05:04:12.190Z,76.87
2019-03-01T05:06:45.294Z,76.50
2019-03-01T05:09:18.615Z,76.43
2019-03-01T05:11:51.667Z,76.28
2019-03-01T05:14:24.587Z,76.14
2019-03-01T05:16:57.686Z,75.96
2019-03-01T05:19:31.564Z,75.60
2019-03-01T05:22:04.639Z,75.47
2019-03-01T05:24:37.764Z,75.44
2019-03-01T05:27:12.707Z,75.37
2019-03-01T05:29:50.418Z,75.45
2019-03-01T05:32:28.667Z,75.58
2019-03-01T05:35:13.196Z,75.61
2019-03-01T05:37:53.696Z,75.07
2019-03-01T05:40:29.123Z,74.58
2019-03-01T05:43:02.097Z,74.62
2019-03-01T05:45:49.756Z,74.55
2019-03-01T05:48:25.014Z,74.55
2019-03-01T05:50:58.433Z,74.41
2019-03-01T05:53:38.930Z,74.38
2019-03-01T05:56:11.851Z,74.48
2019-03-01T05:58:50.496Z,74.44
2019-03-01T06:02:07.423Z,74.41
2019-03-01T06:04:51.665Z,74.16
2019-03-01T06:08:21.120Z,74.13
2019-03-01T06:11:33.170Z,73.94
2019-03-01T06:15:12.298Z,73.97
2019-03-01T06:18:49.542Z,73.75
2019-03-01T06:21:50.797Z,73.54
2019-03-01T06:25:35.984Z,72.70
2019-03-01T06:29:02.628Z,72.83
2019-03-01T06:33:00.758Z,75.41
2019-03-01T06:36:19.486Z,72.72
2019-03-01T06:40:15.857Z,72.42
2019-03-01T06:43:39.198Z,71.94
2019-03-01T06:47:17.911Z,71.85
2019-03-01T06:50:04.601Z,71.16
2019-03-01T06:52:37.311Z,71.58
2019-03-01T06:55:31.556Z,71.79
2019-03-01T06:58:11.516Z,70.84
2019-03-01T07:00:50.473Z,70.33
2019-03-01T07:03:25.845Z,70.66
2019-03-01T07:06:03.737Z,70.15
2019-03-01T07:09:07.064Z,69.78
2019-03-01T07:12:10.825Z,69.88
2019-03-01T07:15:08.741Z,69.68
2019-03-01T07:18:16.388Z,70.04
2019-03-01T07:21:01.759Z,69.87
2019-03-01T07:25:06.458Z,70.21
2019-03-01T07:27:54.752Z,70.59
2019-03-01T07:35:03.486Z,69.56
2019-03-01T07:37:42.294Z,69.68
2019-03-01T07:40:18.990Z,69.99
2019-03-01T07:42:54.361Z,70.32
2019-03-01T07:45:32.002Z,69.83
2019-03-01T07:48:05.038Z,70.06
2019-03-01T07:50:38.286Z,70.62
2019-03-01T07:53:11.395Z,70.66
2019-03-01T07:55:46.536Z,70.42
2019-03-01T07:58:21.559Z,70.80
2019-03-01T08:00:54.792Z,71.53
2019-03-01T08:03:28.015Z,72.13
2019-03-01T08:06:05.591Z,72.28
2019-03-01T08:08:47.457Z,71.58
2019-03-01T08:11:20.564Z,71.31
2019-03-01T08:14:04.871Z,71.70
2019-03-01T08:16:39.400Z,71.71
2019-03-01T08:19:17.065Z,72.15
2019-03-01T08:21:55.817Z,72.03
2019-03-01T08:24:29.128Z,71.69
2019-03-01T08:27:06.492Z,71.33
2019-03-01T08:29:40.601Z,71.82
2019-03-01T08:32:30.635Z,71.59
2019-03-01T08:35:20.428Z,71.10
2019-03-01T08:38:01.400Z,71.28
2019-03-01T08:40:36.046Z,71.26
2019-03-01T08:43:29.685Z,71.35
2019-03-01T08:46:09.577Z,70.64
2019-03-01T08:48:41.085Z,70.93
2019-03-01T08:51:22.759Z,70.84
2019-03-01T08:54:16.808Z,71.03
2019-03-01T08:56:52.872Z,70.82
2019-03-01T08:59:27.589Z,70.44
2019-03-01T09:02:11.842Z,70.14
2019-03-01T09:04:51.119Z,69.69
2019-03-01T09:07:30.228Z,69.94
2019-03-01T09:10:08.684Z,69.69
2019-03-01T09:12:41.917Z,69.84
2019-03-01T09:15:36.728Z,69.50
2019-03-01T09:18:11.496Z,69.36
2019-03-01T09:20:44.317Z,68.78
2019-03-01T09:23:27.274Z,68.68
2019-03-01T09:26:11.140Z,68.85
2019-03-01T09:28:46.951Z,68.88
2019-03-01T09:31:22.603Z,68.83
2019-03-01T09:34:06.144Z,68.95
2019-03-01T09:36:51.475Z,68.95
2019-03-01T09:39:33.901Z,68.66
2019-03-01T09:42:21.043Z,67.71
2019-03-01T09:45:06.890Z,66.05
2019-03-01T09:50:31.656Z,64.68
2019-03-01T09:53:04.792Z,63.21
2019-03-01T09:55:39.287Z,63.30
2019-03-01T09:58:17.269Z,64.28
2019-03-01T10:01:13.794Z,64.21
2019-03-01T10:03:56.169Z,64.60
2019-03-01T10:06:37.791Z,64.59
2019-03-01T10:09:25.713Z,63.33
2019-03-01T10:12:20.217Z,62.17
2019-03-01T10:15:21.881Z,60.83
2019-03-01T10:18:06.941Z,57.41
2019-03-01T10:21:06.938Z,54.13
2019-03-01T10:24:50.999Z,53.07
2019-03-01T10:27:59.686Z,50.76
2019-03-01T10:30:59.722Z,50.76
2019-03-01T10:33:55.168Z,47.38
2019-03-01T10:36:34.664Z,47.42
2019-03-01T10:39:59.285Z,47.93
2019-03-01T10:42:48.071Z,48.52
2019-03-01T10:45:40.350Z,51.01
2019-03-01T10:48:17.731Z,52.47
2019-03-01T10:51:07.830Z,53.88
2019-03-01T10:53:47.783Z,54.31
2019-03-01T10:56:23.956Z,54.20
2019-03-01T10:59:05.772Z,53.52
2019-03-01T11:01:55.175Z,52.24
2019-03-01T11:04:48.635Z,51.81
2019-03-01T11:07:31.745Z,51.76
2019-03-01T11:13:38.897Z,50.61
2019-03-01T11:16:19.904Z,51.12
2019-03-01T11:19:00.025Z,52.66
2019-03-01T11:21:36.673Z,52.46
2019-03-01T11:24:29.662Z,51.50
2019-03-01T11:27:27.354Z,51.33
2019-03-01T11:30:11.906Z,51.34
2019-03-01T11:32:47.235Z,50.87
2019-03-01T11:35:20.639Z,51.00
2019-03-01T11:38:00.127Z,51.43
2019-03-01T11:40:38.838Z,52.54
2019-03-01T11:43:23.627Z,52.20
2019-03-01T11:46:00.533Z,50.62
2019-03-01T11:48:44.717Z,51.06
2019-03-01T11:51:24.853Z,50.33
2019-03-01T11:54:07.405Z,50.07
2019-03-01T11:56:53.608Z,48.83
2019-03-01T11:59:29.477Z,48.55
2019-03-01T12:02:30.996Z,47.39
2019-03-01T12:05:30.526Z,47.06
2019-03-01T12:08:17.577Z,48.65
2019-03-01T12:11:12.022Z,49.91
2019-03-01T12:13:51.628Z,50.40
2019-03-01T12:16:26.507Z,51.82
2019-03-01T12:19:04.627Z,53.99
2019-03-01T12:21:41.659Z,55.95
2019-03-01T12:24:14.872Z,55.95
2019-03-01T12:26:49.678Z,55.16
2019-03-01T12:29:30.845Z,55.66
2019-03-01T12:32:07.742Z,52.24
2019-03-01T12:34:42.510Z,52.24
2019-03-01T12:37:17.630Z,52.69
2019-03-01T12:40:07.985Z,53.24
2019-03-01T12:42:56.508Z,53.95
2019-03-01T12:45:44.336Z,53.95
2019-03-01T12:48:18.753Z,54.37
2019-03-01T12:50:55.939Z,54.65
2019-03-01T12:53:34.980Z,54.65
2019-03-01T12:56:21.386Z,54.30
2019-03-01T12:59:04.999Z,54.21
2019-03-01T13:01:38.828Z,54.31
2019-03-01T13:04:32.103Z,53.69
2019-03-01T13:07:20.188Z,54.28
2019-03-01T13:09:58.876Z,54.03
2019-03-01T13:12:36.224Z,54.44
2019-03-01T13:15:21.480Z,53.98
2019-03-01T13:18:32.225Z,54.16
2019-03-01T13:21:14.654Z,53.84
2019-03-01T13:23:51.253Z,54.19
2019-03-01T13:27:17.529Z,53.98
2019-03-01T13:29:58.762Z,54.62
2019-03-01T13:32:36.077Z,54.73
2019-03-01T13:35:16.366Z,54.84
2019-03-01T13:37:57.755Z,54.59
2019-03-01T13:40:38.399Z,54.17
2019-03-01T13:43:13.097Z,52.08
2019-03-01T13:45:52.719Z,52.08
2019-03-01T13:48:27.284Z,50.27
2019-03-01T13:51:01.512Z,50.75
2019-03-01T13:53:35.004Z,51.65
2019-03-01T13:56:08.187Z,52.59
2019-03-01T13:58:45.469Z,52.15
2019-03-01T14:01:27.042Z,52.35
2019-03-01T14:04:03.250Z,52.45
2019-03-01T14:06:46.549Z,52.27
2019-03-01T14:09:27.091Z,52.38
2019-03-01T14:12:04.219Z,51.46
2019-03-01T14:14:45.254Z,49.93
2019-03-01T14:18:00.670Z,46.99
2019-03-01T14:20:36.085Z,45.47
2019-03-01T14:23:43.069Z,45.57
2019-03-01T14:26:26.349Z,48.29
2019-03-01T14:29:16.947Z,49.62
2019-03-01T14:31:56.639Z,51.46
2019-03-01T14:34:29.883Z,52.83
2019-03-01T14:37:03.505Z,53.40
2019-03-01T14:39:38.144Z,53.83
2019-03-01T14:42:18.847Z,53.51
2019-03-01T14:44:51.834Z,53.97
2019-03-01T14:47:29.126Z,54.00
2019-03-01T14:50:00.698Z,54.43
2019-03-01T14:52:33.538Z,55.22
2019-03-01T14:55:07.588Z,55.32
2019-03-01T14:57:47.082Z,54.76
2019-03-01T15:01:00.155Z,55.17
2019-03-01T15:03:40.633Z,55.25
2019-03-01T15:06:15.468Z,55.79
2019-03-01T15:08:48.250Z,56.23
2019-03-01T15:11:23.668Z,56.35
2019-03-01T15:13:57.683Z,56.80
2019-03-01T15:16:30.636Z,55.63
2019-03-01T15:19:04.789Z,55.73
2019-03-01T15:21:38.429Z,55.55
2019-03-01T15:24:12.526Z,55.32
2019-03-01T15:26:46.274Z,56.03
2019-03-01T15:29:19.200Z,56.23
2019-03-01T15:31:55.065Z,56.72
2019-03-01T15:34:26.922Z,56.87
2019-03-01T15:36:59.863Z,56.89
2019-03-01T15:39:33.022Z,56.99
2019-03-01T15:42:05.969Z,57.24
2019-03-01T15:44:38.997Z,57.32
2019-03-01T15:47:12.144Z,57.28
2019-03-01T15:49:48.027Z,60.27
2019-03-01T15:52:21.161Z,62.22
2019-03-01T15:54:54.305Z,62.71
2019-03-01T15:57:27.546Z,62.97
2019-03-01T16:00:03.530Z,63.21
2019-03-01T16:02:40.286Z,63.55
2019-03-01T16:05:21.688Z,63.78
2019-03-01T16:07:57.208Z,63.94
2019-03-01T16:10:32.917Z,64.40
2019-03-01T16:13:08.413Z,64.67
2019-03-01T16:15:41.271Z,65.09
2019-03-01T16:18:17.004Z,65.38
2019-03-01T16:20:57.354Z,65.38
2019-03-01T16:23:32.593Z,65.72
2019-03-01T16:26:05.993Z,65.96
2019-03-01T16:28:40.410Z,66.14
2019-03-01T16:31:18.013Z,66.55
2019-03-01T16:33:53.558Z,66.91
2019-03-01T16:36:30.733Z,67.14
2019-03-01T16:39:08.567Z,67.11
2019-03-01T16:41:55.369Z,67.21
2019-03-01T16:44:41.690Z,67.43
2019-03-01T16:47:23.310Z,67.72
2019-03-01T16:49:58.946Z,67.78
2019-03-01T16:52:35.538Z,67.73
2019-03-01T16:55:24.452Z,67.87
2019-03-01T16:58:20.159Z,68.09
2019-03-01T17:01:19.189Z,68.30
2019-03-01T17:04:04.192Z,68.15
2019-03-01T17:06:45.496Z,68.14
2019-03-01T17:09:19.013Z,68.33
2019-03-01T17:11:52.255Z,68.33
2019-03-01T17:14:25.313Z,68.53
2019-03-01T17:17:16.857Z,68.56
2019-03-01T17:19:50.189Z,68.56
2019-03-01T17:22:28.057Z,68.69
2019-03-01T17:25:01.298Z,68.83
2019-03-01T17:27:36.730Z,68.70
2019-03-01T17:30:18.151Z,68.46
2019-03-01T17:33:12.808Z,68.77
2019-03-01T17:35:49.271Z,68.75
2019-03-01T17:38:22.925Z,68.64
2019-03-01T17:40:56.507Z,68.95
2019-03-01T17:43:34.235Z,68.97
2019-03-01T17:46:09.707Z,68.99
2019-03-01T17:48:45.641Z,68.84
2019-03-01T17:51:21.074Z,69.02
2019-03-01T17:53:56.001Z,69.00
2019-03-01T17:56:31.123Z,69.31
2019-03-01T17:59:08.251Z,68.14
2019-03-01T18:01:41.083Z,68.42
2019-03-01T18:04:14.338Z,68.36
2019-03-01T18:06:48.713Z,68.94
2019-03-01T18:09:22.122Z,68.72
2019-03-01T18:11:56.758Z,69.53
2019-03-01T18:14:33.802Z,69.62
2019-03-01T18:17:06.468Z,68.92
2019-03-01T18:19:40.392Z,69.63
2019-03-01T18:22:14.849Z,69.50
2019-03-01T18:24:52.327Z,69.81
2019-03-01T18:27:29.813Z,69.73
2019-03-01T18:30:19.978Z,69.93
2019-03-01T18:33:10.366Z,70.36
2019-03-01T18:35:55.942Z,70.73
2019-03-01T18:38:34.654Z,71.08
2019-03-01T18:41:29.235Z,70.90
2019-03-01T18:44:06.504Z,70.68
2019-03-01T18:46:40.452Z,71.07
2019-03-01T18:49:16.712Z,70.72
2019-03-01T18:51:57.616Z,71.01
2019-03-01T18:54:25.991Z,71.18
2019-03-01T18:57:00.746Z,70.78
2019-03-01T18:59:37.980Z,71.72
2019-03-01T19:02:10.311Z,71.34
2019-03-01T19:04:44.169Z,71.41
2019-03-01T19:07:24.369Z,71.77
2019-03-01T19:10:10.696Z,73.02
2019-03-01T19:12:48.643Z,73.27
2019-03-01T19:15:22.643Z,73.82
2019-03-01T19:18:02.395Z,74.03
2019-03-01T19:20:41.553Z,73.88
2019-03-01T19:23:14.869Z,73.92
2019-03-01T19:25:48.245Z,74.67
2019-03-01T19:28:23.565Z,74.08
2019-03-01T19:31:00.928Z,74.27
2019-03-01T19:33:37.861Z,74.34
2019-03-01T19:36:13.646Z,74.62
2019-03-01T19:38:52.301Z,74.61
2019-03-01T19:41:25.487Z,75.02
2019-03-01T19:43:58.652Z,75.32
2019-03-01T19:46:37.096Z,74.84
2019-03-01T19:49:12.999Z,74.84
2019-03-01T19:51:48.891Z,74.35
2019-03-01T19:54:22.351Z,74.47
2019-03-01T19:57:01.565Z,74.86
2019-03-01T19:59:42.672Z,75.08
2019-03-01T20:02:18.669Z,75.17
2019-03-01T20:04:52.636Z,75.05
2019-03-01T20:07:27.450Z,75.37
2019-03-01T20:10:01.010Z,75.55
2019-03-01T20:12:40.491Z,75.67
2019-03-01T20:15:17.645Z,75.51
2019-03-01T20:17:56.829Z,75.26
2019-03-01T20:20:33.365Z,75.41
2019-03-01T20:23:10.744Z,75.55
2019-03-01T20:25:47.519Z,75.31
2019-03-01T20:28:27.198Z,75.31
2019-03-01T20:31:04.831Z,75.70
2019-03-01T20:33:39.458Z,76.30
2019-03-01T20:36:17.630Z,75.41
2019-03-01T20:38:57.114Z,75.11
2019-03-01T20:41:31.544Z,75.27
2019-03-01T20:44:10.890Z,74.83
2019-03-01T20:46:45.006Z,74.37
2019-03-01T20:49:22.172Z,74.63
2019-03-01T20:51:58.792Z,74.72
2019-03-01T20:54:32.870Z,74.83
2019-03-01T20:57:09.196Z,74.81
2019-03-01T20:59:50.569Z,73.91
2019-03-01T21:02:29.168Z,73.79
2019-03-01T21:05:05.217Z,74.09
2019-03-01T21:07:41.325Z,73.86
2019-03-01T21:10:22.624Z,73.92
2019-03-01T21:12:56.336Z,74.86
2019-03-01T21:15:34.667Z,74.69
2019-03-01T21:18:12.013Z,75.31
2019-03-01T21:20:50.557Z,75.67
2019-03-01T21:23:28.901Z,76.46
2019-03-01T21:26:04.874Z,76.72
2019-03-01T21:28:38.471Z,76.99
2019-03-01T21:31:16.502Z,76.69
2019-03-01T21:33:50.949Z,75.92
2019-03-01T21:36:37.350Z,75.73
2019-03-01T21:39:04.838Z,75.51
2019-03-01T21:41:41.539Z,75.14
2019-03-01T21:44:19.135Z,75.24
2019-03-01T21:46:55.647Z,76.46
2019-03-01T21:49:33.240Z,76.96
2019-03-01T21:52:11.096Z,77.87
2019-03-01T21:54:52.032Z,77.99
2019-03-01T21:57:27.515Z,78.02
2019-03-01T22:00:10.566Z,77.92
2019-03-01T22:02:48.908Z,78.01
2019-03-01T22:05:21.302Z,77.99
2019-03-01T22:08:09.598Z,77.84
2019-03-01T22:10:41.819Z,77.91
2019-03-01T22:13:15.687Z,77.79
2019-03-01T22:16:01.023Z,77.88
2019-03-01T22:18:33.305Z,77.88
2019-03-01T22:21:12.048Z,77.58
2019-03-01T22:23:51.442Z,77.47
2019-03-01T22:26:25.989Z,77.38
2019-03-01T22:29:01.900Z,77.34
2019-03-01T22:31:36.858Z,77.04
2019-03-01T22:34:11.071Z,76.97
2019-03-01T22:36:49.467Z,76.69
2019-03-01T22:39:24.315Z,76.22
2019-03-01T22:41:59.274Z,76.16
2019-03-01T22:44:36.537Z,75.57
2019-03-01T22:47:11.016Z,74.78
2019-03-01T22:49:45.760Z,74.69
2019-03-01T22:52:23.117Z,74.35
2019-03-01T22:55:01.904Z,74.45
2019-03-01T22:57:36.082Z,74.75
2019-03-01T23:00:57.966Z,74.69
2019-03-01T23:03:36.362Z,73.88
2019-03-01T23:06:14.688Z,73.32
2019-03-01T23:08:54.383Z,72.78
2019-03-01T23:11:32.411Z,72.55
2019-03-01T23:14:06.716Z,71.97
2019-03-01T23:16:40.144Z,71.44
2019-03-01T23:19:16.104Z,70.84
2019-03-01T23:21:47.975Z,70.74
2019-03-01T23:24:20.829Z,70.42
2019-03-01T23:26:56.773Z,69.76
2019-03-01T23:29:36.243Z,69.52
2019-03-01T23:32:15.436Z,69.20
2019-03-01T23:34:49.549Z,69.21
2019-03-01T23:37:22.583Z,68.71
2019-03-01T23:39:57.124Z,68.35
2019-03-01T23:42:30.220Z,68.46
2019-03-01T23:45:06.914Z,68.43
2019-03-01T23:47:39.848Z,68.80
2019-03-01T23:50:12.619Z,68.25
2019-03-01T23:52:45.425Z,67.41
2019-03-01T23:55:19.929Z,67.36
2019-03-01T23:57:52.882Z,67.10
